sensor_id;sensor_type;location;lat;lon;timestamp;P1;durP1;ratioP1;P2;durP2;ratioP2
54271;SDS011;40184;53.362;5.216;2023-10-09T00:00:24;40.95;;;20.08;;
54271;SDS011;40184;53.362;5.216;2023-10-09T00:03:05;46.95;;;23.27;;
54271;SDS011;40184;53.362;5.216;2023-10-09T00:05:32;46.45;;;22.50;;
54271;SDS011;40184;53.362;5.216;2023-10-09T00:08:17;51.30;;;24.40;;
54271;SDS011;40184;53.362;5.216;2023-10-09T00:10:56;47.13;;;24.45;;
54271;SDS011;40184;53.362;5.216;2023-10-09T00:13:26;46.97;;;24.15;;
54271;SDS011;40184;53.362;5.216;2023-10-09T00:15:57;53.00;;;26.77;;
54271;SDS011;40184;53.362;5.216;2023-10-09T00:18:33;56.85;;;26.65;;
54271;SDS011;40184;53.362;5.216;2023-10-09T00:21:00;65.82;;;28.58;;
54271;SDS011;40184;53.362;5.216;2023-10-09T00:23:38;51.63;;;26.30;;
54271;SDS011;40184;53.362;5.216;2023-10-09T00:26:05;51.80;;;26.45;;
54271;SDS011;40184;53.362;5.216;2023-10-09T00:28:37;55.70;;;27.67;;
54271;SDS011;40184;53.362;5.216;2023-10-09T00:31:06;53.33;;;27.92;;
54271;SDS011;40184;53.362;5.216;2023-10-09T00:33:36;48.03;;;26.17;;
54271;SDS011;40184;53.362;5.216;2023-10-09T00:36:05;52.90;;;28.20;;
54271;SDS011;40184;53.362;5.216;2023-10-09T00:38:44;57.40;;;27.70;;
54271;SDS011;40184;53.362;5.216;2023-10-09T00:41:14;54.75;;;27.25;;
54271;SDS011;40184;53.362;5.216;2023-10-09T00:43:54;56.00;;;27.45;;
54271;SDS011;40184;53.362;5.216;2023-10-09T00:46:24;57.33;;;26.77;;
54271;SDS011;40184;53.362;5.216;2023-10-09T00:48:52;46.28;;;25.38;;
54271;SDS011;40184;53.362;5.216;2023-10-09T00:51:19;36.75;;;22.35;;
54271;SDS011;40184;53.362;5.216;2023-10-09T00:53:50;44.47;;;22.67;;
54271;SDS011;40184;53.362;5.216;2023-10-09T00:56:20;33.35;;;16.80;;
54271;SDS011;40184;53.362;5.216;2023-10-09T00:58:55;27.80;;;13.80;;
54271;SDS011;40184;53.362;5.216;2023-10-09T01:01:25;26.63;;;13.23;;
54271;SDS011;40184;53.362;5.216;2023-10-09T01:04:00;24.50;;;10.98;;
54271;SDS011;40184;53.362;5.216;2023-10-09T01:06:41;20.60;;;9.63;;
54271;SDS011;40184;53.362;5.216;2023-10-09T01:09:13;22.08;;;9.50;;
54271;SDS011;40184;53.362;5.216;2023-10-09T01:11:42;23.48;;;9.40;;
54271;SDS011;40184;53.362;5.216;2023-10-09T01:14:28;23.60;;;8.65;;
54271;SDS011;40184;53.362;5.216;2023-10-09T01:16:56;19.02;;;9.13;;
54271;SDS011;40184;53.362;5.216;2023-10-09T01:19:22;31.77;;;9.60;;
54271;SDS011;40184;53.362;5.216;2023-10-09T01:21:56;23.60;;;9.35;;
54271;SDS011;40184;53.362;5.216;2023-10-09T01:24:41;32.15;;;9.93;;
54271;SDS011;40184;53.362;5.216;2023-10-09T01:27:08;28.67;;;9.57;;
54271;SDS011;40184;53.362;5.216;2023-10-09T01:29:40;24.65;;;10.43;;
54271;SDS011;40184;53.362;5.216;2023-10-09T01:32:07;24.40;;;8.50;;
54271;SDS011;40184;53.362;5.216;2023-10-09T01:34:41;26.48;;;7.90;;
54271;SDS011;40184;53.362;5.216;2023-10-09T01:37:09;25.17;;;9.43;;
54271;SDS011;40184;53.362;5.216;2023-10-09T01:39:51;22.17;;;8.48;;
54271;SDS011;40184;53.362;5.216;2023-10-09T01:42:17;20.00;;;8.30;;
54271;SDS011;40184;53.362;5.216;2023-10-09T01:44:56;32.15;;;11.30;;
54271;SDS011;40184;53.362;5.216;2023-10-09T01:47:40;26.85;;;9.30;;
54271;SDS011;40184;53.362;5.216;2023-10-09T01:50:16;19.30;;;8.90;;
54271;SDS011;40184;53.362;5.216;2023-10-09T01:52:47;32.65;;;9.27;;
54271;SDS011;40184;53.362;5.216;2023-10-09T01:55:13;27.00;;;9.00;;
54271;SDS011;40184;53.362;5.216;2023-10-09T01:57:53;26.20;;;9.30;;
54271;SDS011;40184;53.362;5.216;2023-10-09T02:00:19;24.77;;;8.95;;
54271;SDS011;40184;53.362;5.216;2023-10-09T02:02:49;25.33;;;8.60;;
54271;SDS011;40184;53.362;5.216;2023-10-09T02:05:16;23.23;;;8.38;;
54271;SDS011;40184;53.362;5.216;2023-10-09T02:07:42;21.75;;;7.00;;
54271;SDS011;40184;53.362;5.216;2023-10-09T02:10:13;22.38;;;8.73;;
54271;SDS011;40184;53.362;5.216;2023-10-09T02:13:03;23.02;;;8.65;;
54271;SDS011;40184;53.362;5.216;2023-10-09T02:15:38;25.83;;;8.55;;
54271;SDS011;40184;53.362;5.216;2023-10-09T02:18:08;20.40;;;9.45;;
54271;SDS011;40184;53.362;5.216;2023-10-09T02:23:36;21.60;;;7.45;;
54271;SDS011;40184;53.362;5.216;2023-10-09T02:26:15;21.80;;;8.50;;
54271;SDS011;40184;53.362;5.216;2023-10-09T02:28:54;23.17;;;8.48;;
54271;SDS011;40184;53.362;5.216;2023-10-09T02:31:40;29.10;;;8.00;;
54271;SDS011;40184;53.362;5.216;2023-10-09T02:34:11;17.00;;;6.75;;
54271;SDS011;40184;53.362;5.216;2023-10-09T02:36:37;19.13;;;8.02;;
54271;SDS011;40184;53.362;5.216;2023-10-09T02:39:14;17.88;;;7.55;;
54271;SDS011;40184;53.362;5.216;2023-10-09T02:41:53;23.05;;;8.05;;
54271;SDS011;40184;53.362;5.216;2023-10-09T02:44:25;19.65;;;7.93;;
54271;SDS011;40184;53.362;5.216;2023-10-09T02:46:52;15.70;;;6.90;;
54271;SDS011;40184;53.362;5.216;2023-10-09T02:49:22;19.25;;;8.23;;
54271;SDS011;40184;53.362;5.216;2023-10-09T02:51:49;18.60;;;7.55;;
54271;SDS011;40184;53.362;5.216;2023-10-09T02:54:18;18.02;;;7.15;;
54271;SDS011;40184;53.362;5.216;2023-10-09T02:56:47;26.85;;;8.48;;
54271;SDS011;40184;53.362;5.216;2023-10-09T02:59:20;24.80;;;7.55;;
54271;SDS011;40184;53.362;5.216;2023-10-09T03:01:50;26.30;;;7.30;;
54271;SDS011;40184;53.362;5.216;2023-10-09T03:04:19;21.75;;;8.57;;
54271;SDS011;40184;53.362;5.216;2023-10-09T03:06:45;19.60;;;7.50;;
54271;SDS011;40184;53.362;5.216;2023-10-09T03:09:22;17.55;;;7.40;;
54271;SDS011;40184;53.362;5.216;2023-10-09T03:12:00;18.45;;;7.57;;
54271;SDS011;40184;53.362;5.216;2023-10-09T03:14:35;23.50;;;8.55;;
54271;SDS011;40184;53.362;5.216;2023-10-09T03:17:03;29.80;;;8.45;;
54271;SDS011;40184;53.362;5.216;2023-10-09T03:19:29;21.05;;;7.88;;
54271;SDS011;40184;53.362;5.216;2023-10-09T03:21:55;24.30;;;6.50;;
54271;SDS011;40184;53.362;5.216;2023-10-09T03:24:23;25.38;;;8.30;;
54271;SDS011;40184;53.362;5.216;2023-10-09T03:26:49;23.73;;;7.78;;
54271;SDS011;40184;53.362;5.216;2023-10-09T03:29:15;20.85;;;7.70;;
54271;SDS011;40184;53.362;5.216;2023-10-09T03:31:44;16.33;;;6.88;;
54271;SDS011;40184;53.362;5.216;2023-10-09T03:34:11;19.27;;;7.38;;
54271;SDS011;40184;53.362;5.216;2023-10-09T03:36:37;20.67;;;6.63;;
54271;SDS011;40184;53.362;5.216;2023-10-09T03:39:06;26.30;;;6.93;;
54271;SDS011;40184;53.362;5.216;2023-10-09T03:41:45;22.13;;;7.78;;
54271;SDS011;40184;53.362;5.216;2023-10-09T03:44:15;31.00;;;8.75;;
54271;SDS011;40184;53.362;5.216;2023-10-09T03:46:43;29.42;;;8.85;;
54271;SDS011;40184;53.362;5.216;2023-10-09T03:49:10;24.27;;;7.53;;
54271;SDS011;40184;53.362;5.216;2023-10-09T03:51:37;26.08;;;7.93;;
54271;SDS011;40184;53.362;5.216;2023-10-09T03:54:04;15.93;;;6.38;;
54271;SDS011;40184;53.362;5.216;2023-10-09T03:56:34;19.40;;;7.03;;
54271;SDS011;40184;53.362;5.216;2023-10-09T03:59:00;27.92;;;8.15;;
54271;SDS011;40184;53.362;5.216;2023-10-09T04:01:29;27.23;;;6.88;;
54271;SDS011;40184;53.362;5.216;2023-10-09T04:04:03;23.30;;;7.75;;
54271;SDS011;40184;53.362;5.216;2023-10-09T04:06:31;26.17;;;7.97;;
54271;SDS011;40184;53.362;5.216;2023-10-09T04:08:57;21.58;;;7.18;;
54271;SDS011;40184;53.362;5.216;2023-10-09T04:11:27;31.67;;;9.38;;
54271;SDS011;40184;53.362;5.216;2023-10-09T04:13:53;27.38;;;8.50;;
54271;SDS011;40184;53.362;5.216;2023-10-09T04:16:20;28.13;;;8.32;;
54271;SDS011;40184;53.362;5.216;2023-10-09T04:18:55;34.88;;;7.63;;
54271;SDS011;40184;53.362;5.216;2023-10-09T04:21:22;27.20;;;8.10;;
54271;SDS011;40184;53.362;5.216;2023-10-09T04:24:04;23.33;;;7.80;;
54271;SDS011;40184;53.362;5.216;2023-10-09T04:26:47;20.00;;;8.60;;
54271;SDS011;40184;53.362;5.216;2023-10-09T04:29:14;21.58;;;7.43;;
54271;SDS011;40184;53.362;5.216;2023-10-09T04:31:56;25.95;;;7.93;;
54271;SDS011;40184;53.362;5.216;2023-10-09T04:34:25;18.92;;;7.50;;
54271;SDS011;40184;53.362;5.216;2023-10-09T04:37:00;29.77;;;10.63;;
54271;SDS011;40184;53.362;5.216;2023-10-09T04:39:26;20.13;;;6.80;;
54271;SDS011;40184;53.362;5.216;2023-10-09T04:41:53;24.65;;;8.18;;
54271;SDS011;40184;53.362;5.216;2023-10-09T04:44:39;27.42;;;8.30;;
54271;SDS011;40184;53.362;5.216;2023-10-09T04:47:05;22.75;;;8.07;;
54271;SDS011;40184;53.362;5.216;2023-10-09T04:49:34;24.15;;;7.88;;
54271;SDS011;40184;53.362;5.216;2023-10-09T04:52:12;37.38;;;7.57;;
54271;SDS011;40184;53.362;5.216;2023-10-09T04:54:51;25.48;;;7.28;;
54271;SDS011;40184;53.362;5.216;2023-10-09T04:57:44;23.85;;;6.95;;
54271;SDS011;40184;53.362;5.216;2023-10-09T05:00:25;25.15;;;7.32;;
54271;SDS011;40184;53.362;5.216;2023-10-09T05:02:59;22.25;;;7.45;;
54271;SDS011;40184;53.362;5.216;2023-10-09T05:05:43;17.80;;;6.23;;
54271;SDS011;40184;53.362;5.216;2023-10-09T05:08:10;28.10;;;8.25;;
54271;SDS011;40184;53.362;5.216;2023-10-09T05:10:50;16.02;;;7.28;;
54271;SDS011;40184;53.362;5.216;2023-10-09T05:13:22;20.15;;;8.02;;
54271;SDS011;40184;53.362;5.216;2023-10-09T05:16:11;20.23;;;6.30;;
54271;SDS011;40184;53.362;5.216;2023-10-09T05:18:50;20.65;;;8.38;;
54271;SDS011;40184;53.362;5.216;2023-10-09T05:21:34;15.82;;;7.15;;
54271;SDS011;40184;53.362;5.216;2023-10-09T05:24:02;25.80;;;7.90;;
54271;SDS011;40184;53.362;5.216;2023-10-09T05:26:41;30.02;;;8.82;;
54271;SDS011;40184;53.362;5.216;2023-10-09T05:29:13;29.67;;;8.18;;
54271;SDS011;40184;53.362;5.216;2023-10-09T05:31:58;20.63;;;7.22;;
54271;SDS011;40184;53.362;5.216;2023-10-09T05:37:31;18.52;;;6.50;;
54271;SDS011;40184;53.362;5.216;2023-10-09T05:39:58;22.00;;;7.80;;
54271;SDS011;40184;53.362;5.216;2023-10-09T05:42:30;24.80;;;6.80;;
54271;SDS011;40184;53.362;5.216;2023-10-09T05:45:03;24.13;;;8.32;;
54271;SDS011;40184;53.362;5.216;2023-10-09T05:47:42;22.42;;;7.28;;
54271;SDS011;40184;53.362;5.216;2023-10-09T05:50:27;25.58;;;7.65;;
54271;SDS011;40184;53.362;5.216;2023-10-09T05:52:54;20.50;;;7.25;;
54271;SDS011;40184;53.362;5.216;2023-10-09T05:55:21;22.63;;;7.25;;
54271;SDS011;40184;53.362;5.216;2023-10-09T05:57:54;21.30;;;7.43;;
54271;SDS011;40184;53.362;5.216;2023-10-09T06:00:39;28.63;;;7.95;;
54271;SDS011;40184;53.362;5.216;2023-10-09T06:03:24;24.20;;;6.78;;
54271;SDS011;40184;53.362;5.216;2023-10-09T06:06:12;22.27;;;7.10;;
54271;SDS011;40184;53.362;5.216;2023-10-09T06:09:08;21.98;;;9.13;;
54271;SDS011;40184;53.362;5.216;2023-10-09T06:11:41;21.98;;;6.88;;
54271;SDS011;40184;53.362;5.216;2023-10-09T06:14:15;22.13;;;7.28;;
54271;SDS011;40184;53.362;5.216;2023-10-09T06:16:50;25.33;;;7.78;;
54271;SDS011;40184;53.362;5.216;2023-10-09T06:19:22;23.95;;;8.38;;
54271;SDS011;40184;53.362;5.216;2023-10-09T06:21:49;19.85;;;7.20;;
54271;SDS011;40184;53.362;5.216;2023-10-09T06:24:21;23.15;;;7.43;;
54271;SDS011;40184;53.362;5.216;2023-10-09T06:27:06;27.33;;;8.13;;
54271;SDS011;40184;53.362;5.216;2023-10-09T06:29:32;24.67;;;8.18;;
54271;SDS011;40184;53.362;5.216;2023-10-09T06:32:06;25.98;;;7.82;;
54271;SDS011;40184;53.362;5.216;2023-10-09T06:34:42;29.85;;;8.45;;
54271;SDS011;40184;53.362;5.216;2023-10-09T06:37:10;23.88;;;8.05;;
54271;SDS011;40184;53.362;5.216;2023-10-09T06:39:59;25.23;;;8.70;;
54271;SDS011;40184;53.362;5.216;2023-10-09T06:42:44;23.33;;;8.27;;
54271;SDS011;40184;53.362;5.216;2023-10-09T06:45:16;21.83;;;7.68;;
54271;SDS011;40184;53.362;5.216;2023-10-09T06:50:20;23.52;;;7.93;;
54271;SDS011;40184;53.362;5.216;2023-10-09T06:52:47;25.05;;;8.05;;
54271;SDS011;40184;53.362;5.216;2023-10-09T06:55:25;31.02;;;7.78;;
54271;SDS011;40184;53.362;5.216;2023-10-09T06:58:01;18.38;;;6.70;;
54271;SDS011;40184;53.362;5.216;2023-10-09T07:00:40;20.60;;;7.28;;
54271;SDS011;40184;53.362;5.216;2023-10-09T07:03:25;30.40;;;7.50;;
54271;SDS011;40184;53.362;5.216;2023-10-09T07:06:08;22.77;;;7.07;;
54271;SDS011;40184;53.362;5.216;2023-10-09T07:08:53;27.63;;;7.40;;
54271;SDS011;40184;53.362;5.216;2023-10-09T07:11:31;28.88;;;8.07;;
54271;SDS011;40184;53.362;5.216;2023-10-09T07:14:07;25.98;;;8.25;;
54271;SDS011;40184;53.362;5.216;2023-10-09T07:16:54;26.90;;;7.38;;
54271;SDS011;40184;53.362;5.216;2023-10-09T07:19:26;30.95;;;8.40;;
54271;SDS011;40184;53.362;5.216;2023-10-09T07:21:59;25.38;;;6.78;;
54271;SDS011;40184;53.362;5.216;2023-10-09T07:24:30;20.80;;;7.32;;
54271;SDS011;40184;53.362;5.216;2023-10-09T07:27:12;33.33;;;8.50;;
54271;SDS011;40184;53.362;5.216;2023-10-09T07:29:39;27.38;;;7.63;;
54271;SDS011;40184;53.362;5.216;2023-10-09T07:32:15;24.25;;;7.07;;
54271;SDS011;40184;53.362;5.216;2023-10-09T07:34:50;32.03;;;7.90;;
54271;SDS011;40184;53.362;5.216;2023-10-09T07:37:26;18.23;;;6.95;;
54271;SDS011;40184;53.362;5.216;2023-10-09T07:40:03;27.45;;;7.32;;
54271;SDS011;40184;53.362;5.216;2023-10-09T07:42:33;28.42;;;7.57;;
54271;SDS011;40184;53.362;5.216;2023-10-09T07:45:05;24.05;;;8.02;;
54271;SDS011;40184;53.362;5.216;2023-10-09T07:50:37;24.58;;;7.20;;
54271;SDS011;40184;53.362;5.216;2023-10-09T07:53:09;21.58;;;6.10;;
54271;SDS011;40184;53.362;5.216;2023-10-09T07:55:50;27.98;;;7.55;;
54271;SDS011;40184;53.362;5.216;2023-10-09T07:58:24;23.15;;;6.55;;
54271;SDS011;40184;53.362;5.216;2023-10-09T08:00:54;22.38;;;6.30;;
54271;SDS011;40184;53.362;5.216;2023-10-09T08:03:38;25.42;;;7.07;;
54271;SDS011;40184;53.362;5.216;2023-10-09T08:06:04;23.58;;;6.82;;
54271;SDS011;40184;53.362;5.216;2023-10-09T08:08:49;24.88;;;6.53;;
54271;SDS011;40184;53.362;5.216;2023-10-09T08:11:28;21.85;;;6.95;;
54271;SDS011;40184;53.362;5.216;2023-10-09T08:14:13;26.38;;;6.57;;
54271;SDS011;40184;53.362;5.216;2023-10-09T08:16:46;25.90;;;7.65;;
54271;SDS011;40184;53.362;5.216;2023-10-09T08:19:12;21.83;;;8.05;;
54271;SDS011;40184;53.362;5.216;2023-10-09T08:21:56;26.45;;;7.13;;
54271;SDS011;40184;53.362;5.216;2023-10-09T08:24:49;26.60;;;7.07;;
54271;SDS011;40184;53.362;5.216;2023-10-09T08:27:24;29.30;;;7.25;;
54271;SDS011;40184;53.362;5.216;2023-10-09T08:29:58;29.58;;;9.00;;
54271;SDS011;40184;53.362;5.216;2023-10-09T08:32:56;31.48;;;9.88;;
54271;SDS011;40184;53.362;5.216;2023-10-09T08:35:37;23.25;;;7.30;;
54271;SDS011;40184;53.362;5.216;2023-10-09T08:38:16;20.33;;;6.85;;
54271;SDS011;40184;53.362;5.216;2023-10-09T08:40:52;22.25;;;8.55;;
54271;SDS011;40184;53.362;5.216;2023-10-09T08:43:23;28.10;;;7.83;;
54271;SDS011;40184;53.362;5.216;2023-10-09T08:45:53;25.88;;;7.97;;
54271;SDS011;40184;53.362;5.216;2023-10-09T08:48:26;19.50;;;6.55;;
54271;SDS011;40184;53.362;5.216;2023-10-09T08:50:53;27.83;;;7.95;;
54271;SDS011;40184;53.362;5.216;2023-10-09T08:53:39;22.95;;;7.20;;
54271;SDS011;40184;53.362;5.216;2023-10-09T08:56:11;16.83;;;6.10;;
54271;SDS011;40184;53.362;5.216;2023-10-09T09:01:06;28.30;;;7.55;;
54271;SDS011;40184;53.362;5.216;2023-10-09T09:03:38;24.20;;;6.63;;
54271;SDS011;40184;53.362;5.216;2023-10-09T09:06:09;32.13;;;9.55;;
54271;SDS011;40184;53.362;5.216;2023-10-09T09:08:36;23.08;;;7.07;;
54271;SDS011;40184;53.362;5.216;2023-10-09T09:11:03;34.35;;;8.32;;
54271;SDS011;40184;53.362;5.216;2023-10-09T09:13:41;26.67;;;6.95;;
54271;SDS011;40184;53.362;5.216;2023-10-09T09:16:14;24.92;;;6.57;;
54271;SDS011;40184;53.362;5.216;2023-10-09T09:18:52;27.77;;;7.07;;
54271;SDS011;40184;53.362;5.216;2023-10-09T09:21:42;21.30;;;6.45;;
54271;SDS011;40184;53.362;5.216;2023-10-09T09:24:10;29.90;;;6.22;;
54271;SDS011;40184;53.362;5.216;2023-10-09T09:26:56;21.48;;;6.20;;
54271;SDS011;40184;53.362;5.216;2023-10-09T09:32:13;23.00;;;5.68;;
54271;SDS011;40184;53.362;5.216;2023-10-09T09:34:43;21.70;;;7.07;;
54271;SDS011;40184;53.362;5.216;2023-10-09T09:37:13;16.42;;;5.40;;
54271;SDS011;40184;53.362;5.216;2023-10-09T09:39:44;20.85;;;5.10;;
54271;SDS011;40184;53.362;5.216;2023-10-09T09:42:13;16.77;;;4.97;;
54271;SDS011;40184;53.362;5.216;2023-10-09T09:44:40;20.92;;;5.47;;
54271;SDS011;40184;53.362;5.216;2023-10-09T09:47:12;17.67;;;4.50;;
54271;SDS011;40184;53.362;5.216;2023-10-09T09:49:48;17.52;;;5.22;;
54271;SDS011;40184;53.362;5.216;2023-10-09T09:52:15;24.65;;;5.90;;
54271;SDS011;40184;53.362;5.216;2023-10-09T09:54:43;19.42;;;6.65;;
54271;SDS011;40184;53.362;5.216;2023-10-09T09:57:09;24.55;;;7.00;;
54271;SDS011;40184;53.362;5.216;2023-10-09T09:59:41;15.60;;;4.75;;
54271;SDS011;40184;53.362;5.216;2023-10-09T10:02:18;23.40;;;6.82;;
54271;SDS011;40184;53.362;5.216;2023-10-09T10:04:46;19.65;;;5.55;;
54271;SDS011;40184;53.362;5.216;2023-10-09T10:07:15;20.08;;;5.35;;
54271;SDS011;40184;53.362;5.216;2023-10-09T10:09:42;22.75;;;5.95;;
54271;SDS011;40184;53.362;5.216;2023-10-09T10:12:10;20.10;;;5.90;;
54271;SDS011;40184;53.362;5.216;2023-10-09T10:17:19;21.50;;;5.73;;
54271;SDS011;40184;53.362;5.216;2023-10-09T10:22:48;14.63;;;4.07;;
54271;SDS011;40184;53.362;5.216;2023-10-09T10:30:53;12.15;;;4.15;;
54271;SDS011;40184;53.362;5.216;2023-10-09T10:33:20;14.70;;;3.83;;
54271;SDS011;40184;53.362;5.216;2023-10-09T10:35:48;19.30;;;6.28;;
54271;SDS011;40184;53.362;5.216;2023-10-09T10:38:27;16.05;;;4.75;;
54271;SDS011;40184;53.362;5.216;2023-10-09T10:41:34;63.08;;;33.58;;
54271;SDS011;40184;53.362;5.216;2023-10-09T10:43:58;29.95;;;8.77;;
54271;SDS011;40184;53.362;5.216;2023-10-09T10:46:45;16.10;;;5.07;;
54271;SDS011;40184;53.362;5.216;2023-10-09T10:49:17;19.95;;;6.50;;
54271;SDS011;40184;53.362;5.216;2023-10-09T10:51:47;17.85;;;5.28;;
54271;SDS011;40184;53.362;5.216;2023-10-09T10:54:23;14.93;;;4.65;;
54271;SDS011;40184;53.362;5.216;2023-10-09T10:57:01;13.63;;;5.43;;
54271;SDS011;40184;53.362;5.216;2023-10-09T10:59:40;15.68;;;5.32;;
54271;SDS011;40184;53.362;5.216;2023-10-09T11:02:10;14.90;;;4.78;;
54271;SDS011;40184;53.362;5.216;2023-10-09T11:04:36;18.75;;;5.85;;
54271;SDS011;40184;53.362;5.216;2023-10-09T11:07:09;16.58;;;5.25;;
54271;SDS011;40184;53.362;5.216;2023-10-09T11:09:47;22.55;;;5.03;;
54271;SDS011;40184;53.362;5.216;2023-10-09T11:12:29;16.48;;;4.95;;
54271;SDS011;40184;53.362;5.216;2023-10-09T11:15:06;17.55;;;5.70;;
54271;SDS011;40184;53.362;5.216;2023-10-09T11:17:43;19.48;;;5.43;;
54271;SDS011;40184;53.362;5.216;2023-10-09T11:20:10;15.40;;;4.80;;
54271;SDS011;40184;53.362;5.216;2023-10-09T11:22:52;20.73;;;5.35;;
54271;SDS011;40184;53.362;5.216;2023-10-09T11:25:45;21.48;;;5.43;;
54271;SDS011;40184;53.362;5.216;2023-10-09T11:28:19;22.20;;;4.82;;
54271;SDS011;40184;53.362;5.216;2023-10-09T11:31:10;23.10;;;6.25;;
54271;SDS011;40184;53.362;5.216;2023-10-09T11:33:51;24.85;;;5.80;;
54271;SDS011;40184;53.362;5.216;2023-10-09T11:36:19;21.92;;;5.70;;
54271;SDS011;40184;53.362;5.216;2023-10-09T11:38:54;20.08;;;6.07;;
54271;SDS011;40184;53.362;5.216;2023-10-09T11:41:41;22.92;;;5.47;;
54271;SDS011;40184;53.362;5.216;2023-10-09T11:44:07;23.00;;;5.97;;
54271;SDS011;40184;53.362;5.216;2023-10-09T11:46:59;19.73;;;5.30;;
54271;SDS011;40184;53.362;5.216;2023-10-09T11:49:48;23.05;;;6.18;;
54271;SDS011;40184;53.362;5.216;2023-10-09T11:52:21;23.35;;;6.95;;
54271;SDS011;40184;53.362;5.216;2023-10-09T11:54:57;25.50;;;5.20;;
54271;SDS011;40184;53.362;5.216;2023-10-09T11:57:24;19.85;;;5.15;;
54271;SDS011;40184;53.362;5.216;2023-10-09T11:59:56;21.55;;;5.40;;
54271;SDS011;40184;53.362;5.216;2023-10-09T12:02:23;19.23;;;4.03;;
54271;SDS011;40184;53.362;5.216;2023-10-09T12:04:49;10.55;;;3.30;;
54271;SDS011;40184;53.362;5.216;2023-10-09T12:07:15;21.42;;;5.10;;
54271;SDS011;40184;53.362;5.216;2023-10-09T12:09:41;9.52;;;2.88;;
54271;SDS011;40184;53.362;5.216;2023-10-09T12:12:07;11.73;;;3.30;;
54271;SDS011;40184;53.362;5.216;2023-10-09T12:14:34;12.75;;;4.10;;
54271;SDS011;40184;53.362;5.216;2023-10-09T12:17:06;17.92;;;4.07;;
54271;SDS011;40184;53.362;5.216;2023-10-09T12:19:37;12.23;;;4.05;;
54271;SDS011;40184;53.362;5.216;2023-10-09T12:22:04;14.07;;;4.60;;
54271;SDS011;40184;53.362;5.216;2023-10-09T12:24:34;14.10;;;4.22;;
54271;SDS011;40184;53.362;5.216;2023-10-09T12:27:00;17.63;;;3.63;;
54271;SDS011;40184;53.362;5.216;2023-10-09T12:29:26;18.05;;;4.53;;
54271;SDS011;40184;53.362;5.216;2023-10-09T12:31:55;24.73;;;4.95;;
54271;SDS011;40184;53.362;5.216;2023-10-09T12:34:25;16.30;;;3.85;;
54271;SDS011;40184;53.362;5.216;2023-10-09T12:36:56;13.00;;;4.30;;
54271;SDS011;40184;53.362;5.216;2023-10-09T12:39:28;16.85;;;4.20;;
54271;SDS011;40184;53.362;5.216;2023-10-09T12:42:05;16.60;;;3.92;;
54271;SDS011;40184;53.362;5.216;2023-10-09T12:44:37;14.40;;;3.60;;
54271;SDS011;40184;53.362;5.216;2023-10-09T12:47:08;16.30;;;3.85;;
54271;SDS011;40184;53.362;5.216;2023-10-09T12:49:37;16.13;;;4.05;;
54271;SDS011;40184;53.362;5.216;2023-10-09T12:52:06;13.27;;;3.47;;
54271;SDS011;40184;53.362;5.216;2023-10-09T12:54:41;20.67;;;4.93;;
54271;SDS011;40184;53.362;5.216;2023-10-09T12:57:07;17.15;;;4.40;;
54271;SDS011;40184;53.362;5.216;2023-10-09T12:59:38;15.65;;;4.28;;
54271;SDS011;40184;53.362;5.216;2023-10-09T13:02:10;14.02;;;4.38;;
54271;SDS011;40184;53.362;5.216;2023-10-09T13:04:37;8.38;;;2.60;;
54271;SDS011;40184;53.362;5.216;2023-10-09T13:07:06;8.77;;;3.35;;
54271;SDS011;40184;53.362;5.216;2023-10-09T13:09:33;11.57;;;4.25;;
54271;SDS011;40184;53.362;5.216;2023-10-09T13:12:09;10.95;;;3.30;;
54271;SDS011;40184;53.362;5.216;2023-10-09T13:14:45;16.73;;;4.25;;
54271;SDS011;40184;53.362;5.216;2023-10-09T13:17:14;15.15;;;4.78;;
54271;SDS011;40184;53.362;5.216;2023-10-09T13:19:40;11.75;;;3.35;;
54271;SDS011;40184;53.362;5.216;2023-10-09T13:22:09;9.23;;;3.45;;
54271;SDS011;40184;53.362;5.216;2023-10-09T13:24:38;8.82;;;3.40;;
54271;SDS011;40184;53.362;5.216;2023-10-09T13:27:05;12.30;;;3.42;;
54271;SDS011;40184;53.362;5.216;2023-10-09T13:29:34;11.57;;;4.35;;
54271;SDS011;40184;53.362;5.216;2023-10-09T13:32:00;7.57;;;2.83;;
54271;SDS011;40184;53.362;5.216;2023-10-09T13:34:28;9.40;;;4.82;;
54271;SDS011;40184;53.362;5.216;2023-10-09T13:36:54;11.38;;;4.15;;
54271;SDS011;40184;53.362;5.216;2023-10-09T13:39:23;11.32;;;4.10;;
54271;SDS011;40184;53.362;5.216;2023-10-09T13:41:53;12.05;;;4.20;;
54271;SDS011;40184;53.362;5.216;2023-10-09T13:44:26;8.95;;;3.13;;
54271;SDS011;40184;53.362;5.216;2023-10-09T13:46:53;12.40;;;4.13;;
54271;SDS011;40184;53.362;5.216;2023-10-09T13:49:19;10.25;;;3.25;;
54271;SDS011;40184;53.362;5.216;2023-10-09T13:51:48;16.38;;;3.33;;
54271;SDS011;40184;53.362;5.216;2023-10-09T13:54:15;13.32;;;2.95;;
54271;SDS011;40184;53.362;5.216;2023-10-09T13:57:05;11.63;;;3.58;;
54271;SDS011;40184;53.362;5.216;2023-10-09T13:59:33;14.15;;;4.20;;
54271;SDS011;40184;53.362;5.216;2023-10-09T14:02:02;14.20;;;3.95;;
54271;SDS011;40184;53.362;5.216;2023-10-09T14:04:34;11.30;;;2.50;;
54271;SDS011;40184;53.362;5.216;2023-10-09T14:07:00;8.20;;;2.13;;
54271;SDS011;40184;53.362;5.216;2023-10-09T14:09:30;8.43;;;2.17;;
54271;SDS011;40184;53.362;5.216;2023-10-09T14:11:57;11.15;;;3.45;;
54271;SDS011;40184;53.362;5.216;2023-10-09T14:17:03;9.70;;;2.63;;
54271;SDS011;40184;53.362;5.216;2023-10-09T14:19:36;7.85;;;2.92;;
54271;SDS011;40184;53.362;5.216;2023-10-09T14:22:02;12.30;;;3.22;;
54271;SDS011;40184;53.362;5.216;2023-10-09T14:24:30;5.95;;;3.38;;
54271;SDS011;40184;53.362;5.216;2023-10-09T14:26:59;6.15;;;2.83;;
54271;SDS011;40184;53.362;5.216;2023-10-09T14:29:28;8.63;;;2.40;;
54271;SDS011;40184;53.362;5.216;2023-10-09T14:31:55;12.77;;;3.17;;
54271;SDS011;40184;53.362;5.216;2023-10-09T14:34:28;13.20;;;3.40;;
54271;SDS011;40184;53.362;5.216;2023-10-09T14:37:00;6.07;;;2.30;;
54271;SDS011;40184;53.362;5.216;2023-10-09T14:39:27;8.25;;;2.85;;
54271;SDS011;40184;53.362;5.216;2023-10-09T14:41:54;13.13;;;2.45;;
54271;SDS011;40184;53.362;5.216;2023-10-09T14:44:22;5.50;;;2.13;;
54271;SDS011;40184;53.362;5.216;2023-10-09T14:46:48;6.13;;;2.10;;
54271;SDS011;40184;53.362;5.216;2023-10-09T14:49:16;9.30;;;2.90;;
54271;SDS011;40184;53.362;5.216;2023-10-09T14:51:46;7.70;;;2.55;;
54271;SDS011;40184;53.362;5.216;2023-10-09T14:54:12;4.03;;;2.55;;
54271;SDS011;40184;53.362;5.216;2023-10-09T14:56:42;6.63;;;2.50;;
54271;SDS011;40184;53.362;5.216;2023-10-09T14:59:10;6.82;;;3.40;;
54271;SDS011;40184;53.362;5.216;2023-10-09T15:01:37;8.00;;;2.33;;
54271;SDS011;40184;53.362;5.216;2023-10-09T15:04:03;10.20;;;2.13;;
54271;SDS011;40184;53.362;5.216;2023-10-09T15:06:29;8.75;;;3.47;;
54271;SDS011;40184;53.362;5.216;2023-10-09T15:08:58;10.95;;;2.50;;
54271;SDS011;40184;53.362;5.216;2023-10-09T15:11:34;8.68;;;2.35;;
54271;SDS011;40184;53.362;5.216;2023-10-09T15:14:04;9.07;;;3.72;;
54271;SDS011;40184;53.362;5.216;2023-10-09T15:16:31;11.05;;;3.03;;
54271;SDS011;40184;53.362;5.216;2023-10-09T15:18:57;14.02;;;2.88;;
54271;SDS011;40184;53.362;5.216;2023-10-09T15:21:27;7.70;;;2.85;;
54271;SDS011;40184;53.362;5.216;2023-10-09T15:23:56;9.77;;;2.38;;
54271;SDS011;40184;53.362;5.216;2023-10-09T15:26:23;10.88;;;2.60;;
54271;SDS011;40184;53.362;5.216;2023-10-09T15:28:53;9.68;;;2.83;;
54271;SDS011;40184;53.362;5.216;2023-10-09T15:31:19;7.78;;;2.80;;
54271;SDS011;40184;53.362;5.216;2023-10-09T15:33:47;7.68;;;2.10;;
54271;SDS011;40184;53.362;5.216;2023-10-09T15:36:16;5.88;;;2.05;;
54271;SDS011;40184;53.362;5.216;2023-10-09T15:38:45;8.45;;;3.35;;